createdAt,value
2019-02-17T00:01:19.229Z,31.85
2019-02-17T00:02:51.473Z,30.40
2019-02-17T00:04:23.612Z,32.28
2019-02-17T00:05:55.878Z,30.12
2019-02-17T00:07:27.990Z,31.00
2019-02-17T00:09:00.224Z,31.15
2019-02-17T00:10:32.348Z,30.60
2019-02-17T00:12:04.488Z,31.25
2019-02-17T00:13:36.751Z,31.05
2019-02-17T00:15:08.950Z,30.62
2019-02-17T00:16:41.101Z,29.98
2019-02-17T00:18:13.244Z,30.12
2019-02-17T00:19:45.452Z,30.57
2019-02-17T00:21:17.565Z,30.82
2019-02-17T00:22:49.834Z,29.57
2019-02-17T00:24:22.224Z,30.05
2019-02-17T00:25:54.515Z,32.00
2019-02-17T00:27:26.622Z,31.33
2019-02-17T00:28:59.839Z,29.65
2019-02-17T00:30:32.281Z,29.82
2019-02-17T00:32:04.494Z,31.70
2019-02-17T00:33:36.742Z,38.02
2019-02-17T00:35:10.231Z,34.55
2019-02-17T00:36:42.414Z,32.58
2019-02-17T00:38:14.682Z,30.20
2019-02-17T00:39:46.795Z,30.88
2019-02-17T00:41:19.069Z,30.37
2019-02-17T00:42:51.316Z,32.15
2019-02-17T00:44:23.392Z,31.45
2019-02-17T00:45:55.697Z,30.37
2019-02-17T00:47:27.972Z,32.73
2019-02-17T00:49:00.067Z,31.10
2019-02-17T00:50:32.254Z,30.95
2019-02-17T00:52:04.390Z,31.40
2019-02-17T00:53:36.481Z,30.48
2019-02-17T00:55:08.725Z,30.65
2019-02-17T00:56:41.069Z,28.92
2019-02-17T00:58:13.157Z,30.70
2019-02-17T00:59:45.392Z,31.17
2019-02-17T01:01:17.604Z,29.63
2019-02-17T01:02:49.727Z,29.77
2019-02-17T01:04:21.830Z,29.27
2019-02-17T01:05:53.967Z,30.95
2019-02-17T01:07:26.176Z,30.72
2019-02-17T01:08:58.497Z,30.32
2019-02-17T01:10:30.821Z,30.55
2019-02-17T01:12:03.060Z,30.55
2019-02-17T01:13:35.260Z,29.75
2019-02-17T01:15:08.111Z,30.15
2019-02-17T01:16:40.250Z,29.40
2019-02-17T01:18:12.389Z,29.77
2019-02-17T01:19:44.651Z,29.92
2019-02-17T01:21:16.808Z,30.90
2019-02-17T01:22:48.883Z,31.42
2019-02-17T01:24:21.107Z,31.52
2019-02-17T01:25:53.202Z,30.00
2019-02-17T01:27:25.348Z,28.75
2019-02-17T01:28:57.612Z,30.95
2019-02-17T01:30:29.833Z,30.82
2019-02-17T01:32:01.948Z,30.97
2019-02-17T01:33:34.178Z,32.33
2019-02-17T01:35:06.401Z,30.97
2019-02-17T01:36:38.631Z,30.08
2019-02-17T01:38:10.823Z,31.80
2019-02-17T01:39:50.940Z,32.13
2019-02-17T01:41:23.203Z,33.25
2019-02-17T01:42:55.375Z,36.15
2019-02-17T01:44:27.572Z,32.70
2019-02-17T01:45:59.879Z,31.60
2019-02-17T01:47:32.023Z,32.73
2019-02-17T01:49:04.310Z,33.28
2019-02-17T01:50:36.530Z,32.40
2019-02-17T01:52:08.754Z,30.77
2019-02-17T01:53:40.878Z,31.77
2019-02-17T01:55:12.965Z,32.00
2019-02-17T01:56:45.273Z,31.20
2019-02-17T01:58:17.364Z,30.00
2019-02-17T01:59:49.650Z,30.25
2019-02-17T02:01:21.902Z,30.35
2019-02-17T02:02:54.041Z,30.27
2019-02-17T02:04:26.252Z,30.40
2019-02-17T02:05:58.492Z,30.37
2019-02-17T02:07:30.602Z,28.73
2019-02-17T02:09:05.998Z,28.95
2019-02-17T02:10:38.217Z,30.40
2019-02-17T02:12:10.481Z,30.72
2019-02-17T02:13:42.862Z,30.08
2019-02-17T02:15:15.123Z,29.95
2019-02-17T02:16:47.256Z,30.08
2019-02-17T02:18:19.408Z,28.65
2019-02-17T02:19:51.644Z,30.68
2019-02-17T02:21:23.952Z,30.12
2019-02-17T02:22:56.203Z,30.27
2019-02-17T02:24:28.508Z,29.42
2019-02-17T02:26:00.723Z,29.00
2019-02-17T02:27:33.001Z,29.42
2019-02-17T02:29:05.109Z,30.02
2019-02-17T02:30:37.264Z,30.70
2019-02-17T02:32:09.365Z,30.43
2019-02-17T02:33:41.653Z,30.62
2019-02-17T02:35:13.950Z,29.85
2019-02-17T02:36:46.116Z,29.87
2019-02-17T02:38:18.393Z,31.00
2019-02-17T02:39:50.687Z,29.65
2019-02-17T02:41:33.906Z,31.68
2019-02-17T02:42:57.042Z,29.90
2019-02-17T02:44:29.506Z,30.10
2019-02-17T02:46:01.733Z,30.75
2019-02-17T02:47:33.901Z,30.57
2019-02-17T02:49:06.148Z,31.27
2019-02-17T02:50:38.360Z,32.03
2019-02-17T02:52:10.520Z,30.65
2019-02-17T02:53:42.658Z,29.40
2019-02-17T02:55:14.755Z,30.60
2019-02-17T02:56:46.930Z,30.15
2019-02-17T02:58:19.036Z,28.92
2019-02-17T02:59:52.616Z,33.00
2019-02-17T03:01:25.192Z,32.70
2019-02-17T03:02:57.449Z,31.80
2019-02-17T03:04:29.681Z,31.25
2019-02-17T03:06:08.534Z,31.15
2019-02-17T03:07:40.793Z,30.43
2019-02-17T03:09:12.903Z,29.98
2019-02-17T03:10:45.020Z,30.05
2019-02-17T03:12:17.145Z,31.65
2019-02-17T03:13:49.446Z,29.67
2019-02-17T03:15:21.623Z,30.23
2019-02-17T03:16:53.845Z,30.77
2019-02-17T03:18:25.981Z,29.87
2019-02-17T03:19:58.192Z,29.60
2019-02-17T03:21:30.424Z,28.90
2019-02-17T03:23:02.537Z,29.90
2019-02-17T03:24:34.821Z,29.55
2019-02-17T03:26:07.102Z,30.65
2019-02-17T03:27:39.353Z,30.60
2019-02-17T03:29:11.487Z,29.82
2019-02-17T03:30:43.781Z,29.50
2019-02-17T03:32:15.947Z,30.82
2019-02-17T03:33:48.078Z,31.23
2019-02-17T03:35:20.333Z,31.00
2019-02-17T03:36:52.408Z,28.47
2019-02-17T03:38:24.643Z,31.05
2019-02-17T03:39:56.777Z,29.67
2019-02-17T03:41:29.042Z,30.48
2019-02-17T03:43:01.124Z,30.75
2019-02-17T03:44:33.415Z,31.30
2019-02-17T03:46:05.721Z,29.90
2019-02-17T03:47:37.932Z,30.65
2019-02-17T03:49:10.183Z,29.67
2019-02-17T03:50:42.548Z,31.50
2019-02-17T03:52:14.660Z,32.03
2019-02-17T03:53:46.825Z,31.77
2019-02-17T03:55:18.933Z,30.62
2019-02-17T03:56:51.227Z,29.07
2019-02-17T03:58:23.344Z,29.35
2019-02-17T03:59:55.579Z,30.62
2019-02-17T04:01:27.849Z,31.35
2019-02-17T04:03:00.005Z,29.70
2019-02-17T04:04:32.213Z,29.92
2019-02-17T04:06:04.395Z,29.48
2019-02-17T04:07:36.695Z,31.02
2019-02-17T04:09:08.945Z,29.87
2019-02-17T04:10:41.080Z,30.48
2019-02-17T04:12:13.343Z,29.80
2019-02-17T04:13:45.627Z,29.02
2019-02-17T04:15:17.797Z,28.77
2019-02-17T04:16:50.053Z,29.67
2019-02-17T04:18:22.274Z,29.12
2019-02-17T04:19:54.429Z,29.85
2019-02-17T04:21:26.536Z,30.95
2019-02-17T04:22:58.788Z,31.80
2019-02-17T04:24:31.075Z,30.40
2019-02-17T04:26:03.356Z,31.27
2019-02-17T04:27:35.617Z,29.32
2019-02-17T04:29:10.240Z,29.32
2019-02-17T04:30:41.994Z,30.70
2019-02-17T04:32:14.334Z,30.30
2019-02-17T04:33:46.575Z,30.55
2019-02-17T04:35:18.824Z,30.52
2019-02-17T04:36:50.922Z,31.50
2019-02-17T04:38:23.082Z,31.30
2019-02-17T04:39:55.326Z,30.40
2019-02-17T04:41:27.553Z,30.65
2019-02-17T04:42:59.847Z,30.55
2019-02-17T04:44:32.086Z,30.97
2019-02-17T04:46:04.306Z,30.50
2019-02-17T04:47:36.582Z,32.03
2019-02-17T04:49:08.721Z,33.13
2019-02-17T04:50:40.853Z,33.33
2019-02-17T04:52:13.116Z,31.05
2019-02-17T04:53:45.381Z,33.13
2019-02-17T04:55:17.617Z,33.70
2019-02-17T04:56:49.758Z,34.90
2019-02-17T04:58:22.071Z,32.25
2019-02-17T04:59:54.293Z,30.40
2019-02-17T05:01:26.541Z,31.33
2019-02-17T05:02:58.645Z,31.00
2019-02-17T05:04:30.761Z,30.08
2019-02-17T05:06:02.925Z,30.30
2019-02-17T05:07:35.252Z,31.57
2019-02-17T05:09:07.426Z,29.95
2019-02-17T05:10:39.650Z,29.50
2019-02-17T05:12:11.946Z,30.52
2019-02-17T05:13:44.237Z,31.07
2019-02-17T05:15:16.404Z,30.95
2019-02-17T05:16:48.566Z,29.77
2019-02-17T05:18:20.711Z,31.20
2019-02-17T05:19:52.865Z,30.97
2019-02-17T05:21:25.185Z,30.62
2019-02-17T05:22:57.418Z,30.35
2019-02-17T05:24:29.536Z,30.12
2019-02-17T05:26:01.746Z,33.02
2019-02-17T05:27:34.033Z,30.05
2019-02-17T05:29:06.316Z,29.52
2019-02-17T05:30:38.514Z,28.20
2019-02-17T05:32:10.829Z,30.20
2019-02-17T05:33:43.113Z,28.75
2019-02-17T05:35:15.277Z,29.10
2019-02-17T05:36:47.578Z,28.02
2019-02-17T05:38:19.794Z,29.92
2019-02-17T05:39:52.015Z,29.77
2019-02-17T05:41:24.129Z,28.35
2019-02-17T05:42:56.210Z,27.95
2019-02-17T05:44:28.427Z,28.57
2019-02-17T05:46:00.520Z,28.83
2019-02-17T05:47:32.754Z,29.15
2019-02-17T05:49:05.105Z,26.70
2019-02-17T05:50:37.373Z,28.67
2019-02-17T05:52:09.750Z,30.37
2019-02-17T05:53:41.947Z,29.72
2019-02-17T05:55:14.062Z,31.33
2019-02-17T05:56:46.233Z,29.92
2019-02-17T05:58:18.491Z,29.63
2019-02-17T05:59:50.580Z,30.52
2019-02-17T06:01:22.810Z,31.10
2019-02-17T06:02:55.017Z,29.80
2019-02-17T06:04:27.264Z,29.87
2019-02-17T06:05:59.525Z,29.57
2019-02-17T06:07:31.745Z,29.57
2019-02-17T06:09:04.801Z,30.65
2019-02-17T06:10:37.040Z,30.23
2019-02-17T06:12:09.142Z,29.80
2019-02-17T06:13:41.430Z,29.98
2019-02-17T06:15:13.646Z,29.02
2019-02-17T06:16:45.904Z,29.72
2019-02-17T06:18:18.031Z,30.43
2019-02-17T06:19:50.257Z,30.25
2019-02-17T06:21:22.452Z,29.52
2019-02-17T06:22:54.677Z,29.32
2019-02-17T06:24:26.952Z,31.45
2019-02-17T06:25:59.198Z,29.05
2019-02-17T06:27:31.405Z,29.10
2019-02-17T06:29:03.602Z,29.10
2019-02-17T06:30:35.757Z,29.23
2019-02-17T06:32:07.860Z,27.90
2019-02-17T06:33:39.972Z,28.77
2019-02-17T06:35:12.278Z,27.25
2019-02-17T06:36:44.511Z,28.45
2019-02-17T06:38:16.808Z,26.90
2019-02-17T06:39:48.892Z,27.32
2019-02-17T06:41:21.153Z,28.38
2019-02-17T06:42:53.408Z,27.32
2019-02-17T06:44:25.565Z,26.00
2019-02-17T06:45:57.984Z,27.62
2019-02-17T06:47:32.787Z,29.00
2019-02-17T06:49:04.935Z,27.70
2019-02-17T06:50:37.165Z,26.40
2019-02-17T06:52:09.416Z,27.25
2019-02-17T06:53:41.630Z,26.87
2019-02-17T06:55:30.762Z,27.27
2019-02-17T06:57:25.305Z,26.50
2019-02-17T06:58:57.596Z,27.50
2019-02-17T07:00:32.546Z,27.40
2019-02-17T07:02:05.089Z,26.05
2019-02-17T07:03:37.245Z,26.00
2019-02-17T07:05:16.609Z,27.25
2019-02-17T07:06:54.313Z,26.40
2019-02-17T07:08:31.534Z,26.48
2019-02-17T07:10:03.900Z,27.20
2019-02-17T07:11:36.124Z,26.85
2019-02-17T07:13:08.190Z,25.88
2019-02-17T07:14:40.369Z,26.77
2019-02-17T07:16:12.645Z,27.65
2019-02-17T07:17:44.991Z,27.52
2019-02-17T07:19:17.329Z,27.48
2019-02-17T07:20:49.576Z,27.67
2019-02-17T07:22:21.861Z,27.80
2019-02-17T07:23:54.438Z,26.77
2019-02-17T07:25:29.955Z,25.72
2019-02-17T07:27:00.736Z,26.70
2019-02-17T07:28:32.872Z,26.30
2019-02-17T07:30:05.238Z,26.30
2019-02-17T07:31:37.503Z,25.72
2019-02-17T07:33:09.732Z,26.10
2019-02-17T07:34:41.954Z,26.70
2019-02-17T07:36:14.089Z,27.82
2019-02-17T07:37:46.346Z,26.40
2019-02-17T07:39:18.733Z,27.73
2019-02-17T07:40:50.833Z,28.80
2019-02-17T07:42:23.074Z,28.40
2019-02-17T07:43:55.295Z,28.40
2019-02-17T07:45:27.539Z,26.70
2019-02-17T07:46:59.772Z,27.67
2019-02-17T07:48:31.982Z,27.37
2019-02-17T07:50:04.790Z,26.68
2019-02-17T07:51:37.048Z,27.45
2019-02-17T07:53:09.279Z,28.77
2019-02-17T07:54:41.535Z,30.62
2019-02-17T07:56:13.765Z,29.60
2019-02-17T07:57:45.873Z,31.42
2019-02-17T07:59:18.126Z,30.85
2019-02-17T08:00:50.348Z,30.85
2019-02-17T08:02:22.428Z,33.10
2019-02-17T08:03:54.719Z,32.33
2019-02-17T08:05:26.932Z,33.28
2019-02-17T08:06:59.015Z,34.65
2019-02-17T08:08:31.212Z,33.10
2019-02-17T08:10:03.719Z,33.38
2019-02-17T08:11:35.943Z,34.30
2019-02-17T08:13:08.221Z,32.38
2019-02-17T08:14:40.399Z,33.02
2019-02-17T08:16:12.726Z,34.25
2019-02-17T08:17:44.865Z,34.13
2019-02-17T08:19:17.013Z,34.30
2019-02-17T08:20:53.806Z,33.30
2019-02-17T08:22:26.237Z,33.70
2019-02-17T08:23:58.460Z,32.85
2019-02-17T08:25:30.783Z,34.85
2019-02-17T08:27:04.564Z,35.48
2019-02-17T08:28:37.021Z,34.13
2019-02-17T08:30:10.592Z,33.67
2019-02-17T08:31:42.826Z,35.17
2019-02-17T08:33:14.956Z,33.90
2019-02-17T08:34:47.184Z,34.58
2019-02-17T08:36:19.472Z,33.65
2019-02-17T08:37:51.716Z,33.70
2019-02-17T08:39:23.923Z,35.23
2019-02-17T08:40:56.196Z,34.35
2019-02-17T08:42:28.478Z,34.83
2019-02-17T08:44:01.015Z,34.95
2019-02-17T08:45:33.339Z,34.15
2019-02-17T08:47:05.423Z,33.63
2019-02-17T08:48:37.569Z,33.65
2019-02-17T08:50:09.940Z,34.50
2019-02-17T08:51:42.268Z,34.03
2019-02-17T08:53:14.442Z,34.20
2019-02-17T08:54:46.558Z,35.03
2019-02-17T08:56:18.854Z,34.88
2019-02-17T08:57:51.017Z,35.98
2019-02-17T08:59:23.181Z,37.25
2019-02-17T09:00:55.434Z,39.00
2019-02-17T09:02:27.643Z,37.45
2019-02-17T09:03:59.943Z,36.08
2019-02-17T09:05:32.228Z,36.95
2019-02-17T09:07:06.322Z,36.42
2019-02-17T09:08:38.692Z,37.15
2019-02-17T09:10:10.992Z,36.55
2019-02-17T09:11:43.263Z,33.15
2019-02-17T09:13:15.552Z,30.45
2019-02-17T09:14:48.010Z,28.57
2019-02-17T09:16:20.332Z,26.00
2019-02-17T09:17:52.619Z,26.93
2019-02-17T09:19:24.948Z,26.85
2019-02-17T09:20:57.216Z,26.15
2019-02-17T09:22:32.200Z,26.07
2019-02-17T09:24:04.498Z,32.30
2019-02-17T09:25:36.731Z,33.70
2019-02-17T09:27:08.948Z,32.30
2019-02-17T09:28:41.220Z,31.15
2019-02-17T09:30:14.676Z,29.70
2019-02-17T09:31:46.961Z,29.92
2019-02-17T09:33:19.097Z,28.40
2019-02-17T09:34:51.369Z,27.27
2019-02-17T09:36:23.650Z,26.42
2019-02-17T09:37:55.996Z,27.00
2019-02-17T09:39:28.128Z,26.27
2019-02-17T09:41:00.479Z,25.55
2019-02-17T09:42:32.620Z,26.52
2019-02-17T09:44:04.719Z,27.20
2019-02-17T09:45:36.941Z,24.98
2019-02-17T09:47:09.216Z,26.15
2019-02-17T09:48:41.451Z,26.23
2019-02-17T09:50:13.684Z,27.58
2019-02-17T09:51:45.963Z,25.92
2019-02-17T09:53:18.188Z,24.85
2019-02-17T09:54:50.368Z,24.87
2019-02-17T09:56:22.669Z,28.60
2019-02-17T09:57:54.920Z,26.25
2019-02-17T09:59:27.189Z,30.60
2019-02-17T10:00:59.457Z,31.48
2019-02-17T10:02:31.752Z,29.40
2019-02-17T10:04:04.109Z,35.38
2019-02-17T10:05:36.333Z,30.85
2019-02-17T10:07:08.589Z,31.42
2019-02-17T10:08:40.912Z,29.12
2019-02-17T10:10:14.820Z,26.55
2019-02-17T10:11:47.388Z,28.83
2019-02-17T10:13:19.556Z,30.65
2019-02-17T10:14:51.841Z,28.12
2019-02-17T10:16:23.977Z,27.82
2019-02-17T10:17:56.305Z,26.35
2019-02-17T10:19:29.243Z,24.02
2019-02-17T10:21:01.638Z,24.30
2019-02-17T10:22:33.980Z,22.48
2019-02-17T10:24:06.332Z,22.80
2019-02-17T10:25:38.774Z,23.35
2019-02-17T10:27:11.240Z,22.65
2019-02-17T10:28:43.866Z,22.02
2019-02-17T10:30:18.022Z,22.15
2019-02-17T10:31:50.368Z,22.32
2019-02-17T10:33:22.689Z,22.52
2019-02-17T10:34:54.842Z,23.20
2019-02-17T10:36:27.040Z,24.55
2019-02-17T10:37:59.137Z,23.80
2019-02-17T10:39:31.436Z,25.23
2019-02-17T10:41:03.731Z,25.25
2019-02-17T10:42:36.035Z,24.30
2019-02-17T10:44:08.328Z,25.92
2019-02-17T10:45:40.591Z,24.87
2019-02-17T10:47:12.900Z,24.15
2019-02-17T10:48:45.282Z,23.27
2019-02-17T10:50:17.554Z,23.47
2019-02-17T10:51:52.908Z,21.65
2019-02-17T10:53:25.185Z,22.37
2019-02-17T10:54:57.429Z,23.65
2019-02-17T10:56:29.588Z,20.25
2019-02-17T10:58:01.853Z,21.62
2019-02-17T10:59:34.269Z,22.30
2019-02-17T11:01:06.417Z,21.95
2019-02-17T11:02:46.652Z,22.45
2019-02-17T11:04:12.898Z,21.95
2019-02-17T11:05:45.212Z,20.92
2019-02-17T11:07:17.430Z,24.27
2019-02-17T11:08:49.730Z,22.60
2019-02-17T11:10:22.044Z,19.48
2019-02-17T11:11:56.193Z,20.23
2019-02-17T11:13:28.418Z,22.52
2019-02-17T11:15:00.703Z,21.77
2019-02-17T11:16:32.857Z,22.32
2019-02-17T11:18:04.980Z,21.50
2019-02-17T11:19:37.207Z,22.55
2019-02-17T11:21:09.520Z,22.22
2019-02-17T11:22:41.834Z,21.00
2019-02-17T11:24:13.934Z,21.75
2019-02-17T11:25:46.168Z,22.13
2019-02-17T11:27:18.304Z,24.55
2019-02-17T11:28:50.569Z,23.18
2019-02-17T11:30:22.659Z,22.82
2019-02-17T11:31:54.794Z,22.45
2019-02-17T11:33:27.025Z,21.50
2019-02-17T11:34:59.145Z,21.93
2019-02-17T11:36:31.495Z,22.10
2019-02-17T11:38:03.619Z,22.25
2019-02-17T11:39:35.732Z,21.87
2019-02-17T11:41:07.888Z,21.57
2019-02-17T11:42:40.103Z,22.05
2019-02-17T11:44:12.336Z,22.52
2019-02-17T11:45:44.460Z,23.65
2019-02-17T11:47:16.693Z,21.75
2019-02-17T11:48:49.063Z,21.82
2019-02-17T11:50:21.311Z,22.25
2019-02-17T11:51:53.432Z,22.45
2019-02-17T11:53:25.718Z,22.90
2019-02-17T11:54:57.873Z,21.95
2019-02-17T11:56:30.177Z,22.22
2019-02-17T11:58:02.439Z,21.05
2019-02-17T11:59:34.557Z,23.32
2019-02-17T12:01:06.820Z,22.77
2019-02-17T12:02:39.135Z,22.00
2019-02-17T12:04:12.416Z,20.57
2019-02-17T12:05:44.704Z,19.65
2019-02-17T12:07:16.960Z,20.15
2019-02-17T12:08:50.197Z,21.20
2019-02-17T12:10:22.717Z,20.65
2019-02-17T12:11:54.941Z,20.40
2019-02-17T12:13:27.262Z,22.05
2019-02-17T12:14:59.610Z,22.65
2019-02-17T12:16:37.001Z,21.35
2019-02-17T12:18:06.182Z,21.45
2019-02-17T12:19:38.450Z,21.25
2019-02-17T12:21:19.866Z,22.48
2019-02-17T12:22:59.636Z,21.62
2019-02-17T12:24:45.814Z,20.88
2019-02-17T12:26:40.519Z,22.25
2019-02-17T12:28:19.847Z,22.17
2019-02-17T12:29:55.988Z,21.55
2019-02-17T12:31:32.519Z,20.05
2019-02-17T12:33:04.734Z,19.70
2019-02-17T12:34:37.062Z,21.15
2019-02-17T12:36:09.408Z,21.77
2019-02-17T12:37:41.639Z,22.07
2019-02-17T12:39:15.205Z,20.25
2019-02-17T12:40:48.951Z,21.40
2019-02-17T12:42:21.124Z,22.52
2019-02-17T12:43:53.417Z,21.00
2019-02-17T12:45:25.665Z,21.37
2019-02-17T12:46:57.909Z,21.82
2019-02-17T12:48:31.291Z,20.25
2019-02-17T12:50:05.050Z,21.12
2019-02-17T12:51:37.578Z,20.88
2019-02-17T12:53:09.841Z,19.35
2019-02-17T12:54:41.978Z,20.17
2019-02-17T12:56:14.240Z,20.00
2019-02-17T12:57:46.563Z,20.48
2019-02-17T12:59:18.836Z,18.98
2019-02-17T13:00:51.217Z,19.02
2019-02-17T13:02:23.350Z,18.85
2019-02-17T13:03:55.529Z,19.32
2019-02-17T13:05:27.978Z,18.95
2019-02-17T13:07:00.306Z,19.92
2019-02-17T13:08:32.689Z,19.55
2019-02-17T13:10:05.275Z,18.35
2019-02-17T13:11:37.533Z,18.80
2019-02-17T13:13:09.765Z,18.85
2019-02-17T13:14:42.038Z,19.17
2019-02-17T13:16:14.337Z,19.12
2019-02-17T13:17:46.436Z,19.40
2019-02-17T13:19:18.766Z,19.30
2019-02-17T13:20:51.043Z,18.90
2019-02-17T13:22:23.547Z,18.80
2019-02-17T13:23:55.950Z,19.35
2019-02-17T13:25:28.224Z,19.90
2019-02-17T13:27:00.508Z,19.85
2019-02-17T13:28:32.625Z,21.35
2019-02-17T13:30:07.525Z,21.12
2019-02-17T13:31:40.017Z,20.12
2019-02-17T13:33:12.276Z,19.05
2019-02-17T13:34:44.584Z,19.57
2019-02-17T13:36:16.917Z,19.92
2019-02-17T13:37:49.201Z,22.85
2019-02-17T13:39:21.437Z,21.12
2019-02-17T13:40:53.691Z,20.97
2019-02-17T13:42:25.990Z,20.00
2019-02-17T13:43:58.108Z,20.32
2019-02-17T13:45:30.387Z,20.00
2019-02-17T13:47:02.655Z,20.20
2019-02-17T13:48:34.913Z,20.35
2019-02-17T13:50:08.956Z,20.68
2019-02-17T13:51:41.079Z,20.88
2019-02-17T13:53:13.348Z,19.85
2019-02-17T13:54:45.603Z,20.48
2019-02-17T13:56:17.734Z,20.70
2019-02-17T13:57:52.322Z,21.20
2019-02-17T13:59:24.192Z,20.27
2019-02-17T14:00:56.466Z,20.48
2019-02-17T14:02:28.678Z,19.70
2019-02-17T14:04:00.943Z,18.90
2019-02-17T14:05:33.189Z,18.67
2019-02-17T14:07:05.464Z,18.62
2019-02-17T14:08:37.830Z,16.52
2019-02-17T14:10:10.522Z,16.32
2019-02-17T14:11:43.059Z,16.93
2019-02-17T14:13:15.462Z,16.42
2019-02-17T14:14:47.726Z,15.95
2019-02-17T14:16:21.818Z,16.27
2019-02-17T14:17:54.095Z,16.95
2019-02-17T14:19:26.434Z,17.12
2019-02-17T14:20:58.690Z,15.72
2019-02-17T14:22:30.815Z,16.65
2019-02-17T14:24:02.981Z,15.75
2019-02-17T14:25:35.256Z,15.30
2019-02-17T14:27:07.547Z,15.50
2019-02-17T14:28:39.866Z,15.35
2019-02-17T14:30:12.589Z,15.88
2019-02-17T14:31:44.812Z,15.18
2019-02-17T14:33:17.128Z,16.32
2019-02-17T14:34:49.273Z,16.12
2019-02-17T14:36:21.503Z,16.12
2019-02-17T14:37:53.779Z,16.85
2019-02-17T14:39:26.137Z,16.95
2019-02-17T14:40:58.442Z,16.23
2019-02-17T14:42:30.740Z,16.00
2019-02-17T14:44:03.023Z,15.75
2019-02-17T14:45:35.311Z,14.90
2019-02-17T14:47:07.580Z,15.40
2019-02-17T14:48:39.833Z,15.63
2019-02-17T14:50:12.425Z,15.50
2019-02-17T14:51:44.676Z,15.75
2019-02-17T14:53:16.949Z,15.53
2019-02-17T14:54:49.153Z,15.00
2019-02-17T14:56:21.409Z,15.72
2019-02-17T14:57:53.536Z,15.88
2019-02-17T14:59:27.820Z,15.35
2019-02-17T15:00:59.928Z,15.48
2019-02-17T15:02:32.191Z,15.85
2019-02-17T15:04:08.751Z,16.20
2019-02-17T15:05:38.548Z,15.13
2019-02-17T15:07:10.851Z,15.23
2019-02-17T15:08:42.993Z,15.93
2019-02-17T15:10:15.267Z,15.10
2019-02-17T15:11:47.532Z,15.65
2019-02-17T15:13:24.555Z,15.03
2019-02-17T15:14:53.919Z,15.90
2019-02-17T15:16:26.181Z,16.05
2019-02-17T15:17:58.453Z,15.05
2019-02-17T15:19:30.688Z,16.07
2019-02-17T15:21:02.778Z,15.60
2019-02-17T15:22:35.012Z,15.05
2019-02-17T15:24:08.043Z,15.93
2019-02-17T15:25:40.422Z,16.30
2019-02-17T15:27:12.635Z,16.27
2019-02-17T15:28:50.976Z,16.48
2019-02-17T15:30:19.094Z,17.20
2019-02-17T15:31:51.376Z,15.93
2019-02-17T15:33:23.647Z,16.75
2019-02-17T15:34:55.834Z,16.10
2019-02-17T15:36:27.949Z,16.97
2019-02-17T15:38:00.250Z,16.15
2019-02-17T15:39:32.614Z,15.88
2019-02-17T15:41:04.945Z,15.50
2019-02-17T15:42:37.096Z,15.58
2019-02-17T15:44:09.324Z,16.23
2019-02-17T15:45:41.609Z,16.45
2019-02-17T15:47:13.842Z,16.10
2019-02-17T15:48:46.138Z,16.32
2019-02-17T15:50:18.384Z,16.87
2019-02-17T15:51:50.701Z,16.30
2019-02-17T15:53:22.928Z,16.42
2019-02-17T15:54:55.082Z,15.38
2019-02-17T15:56:27.240Z,15.30
2019-02-17T15:57:59.518Z,16.32
2019-02-17T15:59:31.785Z,16.12
2019-02-17T16:01:04.384Z,16.90
2019-02-17T16:02:36.691Z,15.40
2019-02-17T16:04:08.936Z,16.05
2019-02-17T16:05:41.049Z,16.02
2019-02-17T16:07:13.297Z,15.60
2019-02-17T16:08:45.559Z,15.85
2019-02-17T16:10:17.880Z,16.23
2019-02-17T16:11:50.062Z,15.50
2019-02-17T16:13:22.258Z,16.20
2019-02-17T16:14:54.459Z,16.07
2019-02-17T16:16:28.001Z,15.80
2019-02-17T16:18:00.319Z,14.85
2019-02-17T16:19:32.625Z,16.73
2019-02-17T16:21:04.937Z,15.38
2019-02-17T16:22:37.067Z,16.10
2019-02-17T16:24:09.292Z,17.27
2019-02-17T16:25:41.548Z,15.45
2019-02-17T16:27:13.828Z,16.77
2019-02-17T16:28:46.239Z,15.98
2019-02-17T16:30:18.486Z,17.05
2019-02-17T16:31:50.708Z,16.67
2019-02-17T16:33:22.983Z,16.77
2019-02-17T16:34:55.218Z,15.85
2019-02-17T16:36:27.520Z,16.75
2019-02-17T16:37:59.801Z,19.95
2019-02-17T16:39:32.106Z,20.77
2019-02-17T16:41:04.402Z,21.12
2019-02-17T16:42:36.668Z,22.93
2019-02-17T16:44:08.833Z,21.75
2019-02-17T16:45:40.964Z,19.40
2019-02-17T16:47:13.069Z,17.45
2019-02-17T16:48:45.196Z,18.12
2019-02-17T16:50:18.169Z,18.60
2019-02-17T16:51:50.345Z,17.57
2019-02-17T16:53:22.508Z,18.82
2019-02-17T16:54:54.726Z,16.62
2019-02-17T16:56:27.025Z,16.62
2019-02-17T16:57:59.317Z,16.12
2019-02-17T16:59:31.423Z,17.40
2019-02-17T17:01:04.356Z,18.35
2019-02-17T17:02:36.472Z,20.45
2019-02-17T17:04:08.654Z,21.12
2019-02-17T17:05:44.493Z,21.65
2019-02-17T17:07:17.722Z,23.73
2019-02-17T17:08:50.005Z,22.15
2019-02-17T17:10:22.260Z,22.27
2019-02-17T17:11:55.158Z,21.40
2019-02-17T17:13:27.524Z,21.40
2019-02-17T17:14:59.708Z,19.98
2019-02-17T17:16:32.020Z,20.97
2019-02-17T17:18:04.311Z,21.05
2019-02-17T17:19:36.565Z,21.35
2019-02-17T17:21:08.943Z,22.05
2019-02-17T17:22:41.555Z,21.75
2019-02-17T17:24:13.820Z,22.80
2019-02-17T17:25:46.167Z,21.75
2019-02-17T17:27:18.918Z,22.52
2019-02-17T17:28:51.316Z,20.72
2019-02-17T17:30:23.560Z,21.07
2019-02-17T17:31:55.847Z,20.80
2019-02-17T17:33:28.236Z,20.50
2019-02-17T17:35:00.378Z,21.97
2019-02-17T17:36:32.528Z,21.12
2019-02-17T17:38:04.896Z,21.30
2019-02-17T17:39:37.010Z,21.75
2019-02-17T17:41:09.261Z,20.35
2019-02-17T17:42:41.511Z,20.52
2019-02-17T17:44:13.654Z,21.60
2019-02-17T17:45:46.114Z,21.77
2019-02-17T17:47:18.361Z,22.73
2019-02-17T17:48:50.752Z,23.77
2019-02-17T17:50:23.303Z,22.75
2019-02-17T17:51:55.581Z,24.40
2019-02-17T17:53:27.924Z,24.18
2019-02-17T17:55:00.312Z,24.12
2019-02-17T17:56:32.577Z,24.92
2019-02-17T17:58:04.783Z,25.05
2019-02-17T17:59:37.069Z,24.43
2019-02-17T18:01:09.299Z,23.85
2019-02-17T18:02:41.598Z,24.25
2019-02-17T18:04:13.905Z,24.90
2019-02-17T18:05:46.067Z,22.98
2019-02-17T18:07:18.473Z,23.35
2019-02-17T18:08:50.797Z,24.15
2019-02-17T18:10:23.177Z,23.45
2019-02-17T18:11:55.533Z,27.90
2019-02-17T18:13:27.760Z,35.30
2019-02-17T18:15:00.161Z,35.70
2019-02-17T18:16:32.714Z,41.05
2019-02-17T18:18:05.031Z,36.33
2019-02-17T18:19:37.188Z,36.03
2019-02-17T18:21:09.510Z,38.00
2019-02-17T18:22:41.672Z,36.13
2019-02-17T18:24:14.039Z,35.30
2019-02-17T18:25:46.427Z,34.20
2019-02-17T18:27:18.710Z,33.95
2019-02-17T18:28:51.092Z,34.65
2019-02-17T18:30:23.382Z,32.95
2019-02-17T18:31:55.872Z,30.57
2019-02-17T18:33:28.064Z,29.18
2019-02-17T18:35:00.239Z,26.35
2019-02-17T18:36:32.490Z,26.80
2019-02-17T18:38:04.775Z,26.50
2019-02-17T18:39:36.946Z,25.20
2019-02-17T18:41:09.260Z,26.25
2019-02-17T18:42:42.255Z,26.95
2019-02-17T18:44:14.388Z,27.60
2019-02-17T18:45:46.576Z,26.07
2019-02-17T18:47:19.931Z,26.80
2019-02-17T18:48:52.376Z,26.57
2019-02-17T18:50:24.565Z,26.07
2019-02-17T18:51:56.674Z,26.62
2019-02-17T18:53:28.834Z,25.45
2019-02-17T18:55:01.104Z,25.12
2019-02-17T18:56:33.328Z,26.23
2019-02-17T18:58:05.603Z,25.05
2019-02-17T18:59:37.728Z,25.50
2019-02-17T19:01:09.914Z,24.72
2019-02-17T19:02:42.202Z,25.35
2019-02-17T19:04:14.457Z,26.15
2019-02-17T19:05:46.854Z,24.47
2019-02-17T19:07:19.044Z,23.77
2019-02-17T19:08:51.163Z,23.83
2019-02-17T19:10:23.435Z,22.77
2019-02-17T19:11:55.755Z,22.00
2019-02-17T19:13:28.113Z,22.98
2019-02-17T19:15:00.418Z,22.52
2019-02-17T19:16:32.695Z,22.32
2019-02-17T19:18:04.886Z,22.22
2019-02-17T19:19:37.014Z,23.25
2019-02-17T19:21:09.260Z,23.25
2019-02-17T19:22:41.517Z,23.40
2019-02-17T19:24:13.653Z,23.80
2019-02-17T19:25:45.823Z,24.45
2019-02-17T19:27:17.920Z,23.55
2019-02-17T19:28:50.064Z,25.62
2019-02-17T19:30:22.215Z,24.87
2019-02-17T19:31:54.389Z,24.47
2019-02-17T19:33:26.663Z,25.43
2019-02-17T19:34:58.825Z,25.45
2019-02-17T19:36:31.052Z,25.52
2019-02-17T19:38:03.307Z,25.15
2019-02-17T19:39:35.568Z,25.48
2019-02-17T19:41:07.727Z,23.70
2019-02-17T19:42:40.022Z,24.20
2019-02-17T19:44:12.306Z,24.52
2019-02-17T19:45:44.628Z,25.00
2019-02-17T19:47:16.849Z,24.37
2019-02-17T19:48:49.108Z,25.20
2019-02-17T19:50:21.298Z,26.73
2019-02-17T19:51:53.580Z,27.48